sensor_id;sensor_type;location;lat;lon;timestamp;pressure;altitude;pressure_sealevel;temperature;humidity
64230;BME280;50547;49.498;0.092;2022-08-30T00:02:01;1014;;;18.61;69.01
64230;BME280;50547;49.498;0.092;2022-08-30T00:04:30;1014;;;18.58;69.24
64230;BME280;50547;49.498;0.092;2022-08-30T00:06:59;1015;;;18.60;69.10
64230;BME280;50547;49.498;0.092;2022-08-30T00:09:30;1015;;;18.63;69.07
64230;BME280;50547;49.498;0.092;2022-08-30T00:11:59;1014;;;18.62;69.09
64230;BME280;50547;49.498;0.092;2022-08-30T00:14:28;1015;;;18.61;69.11
64230;BME280;50547;49.498;0.092;2022-08-30T00:16:57;1014;;;18.57;69.21
64230;BME280;50547;49.498;0.092;2022-08-30T00:19:26;1015;;;18.59;68.91
64230;BME280;50547;49.498;0.092;2022-08-30T00:21:55;1015;;;18.62;68.81
64230;BME280;50547;49.498;0.092;2022-08-30T00:24:24;1015;;;18.62;68.82
64230;BME280;50547;49.498;0.092;2022-08-30T00:26:53;1015;;;18.63;68.68
64230;BME280;50547;49.498;0.092;2022-08-30T00:29:22;1015;;;18.58;68.86
64230;BME280;50547;49.498;0.092;2022-08-30T00:31:51;1015;;;18.54;69.12
64230;BME280;50547;49.498;0.092;2022-08-30T00:34:20;1015;;;18.57;68.81
64230;BME280;50547;49.498;0.092;2022-08-30T00:36:49;1015;;;18.51;69.00
64230;BME280;50547;49.498;0.092;2022-08-30T00:39:18;1015;;;18.48;69.05
64230;BME280;50547;49.498;0.092;2022-08-30T00:41:47;1015;;;18.40;69.44
64230;BME280;50547;49.498;0.092;2022-08-30T00:44:17;1015;;;18.47;68.92
64230;BME280;50547;49.498;0.092;2022-08-30T00:46:46;1015;;;18.44;68.95
64230;BME280;50547;49.498;0.092;2022-08-30T00:49:15;1015;;;18.39;69.18
64230;BME280;50547;49.498;0.092;2022-08-30T00:51:44;1015;;;18.39;69.09
64230;BME280;50547;49.498;0.092;2022-08-30T00:54:13;1015;;;18.37;69.01
64230;BME280;50547;49.498;0.092;2022-08-30T00:56:43;1015;;;18.33;69.09
64230;BME280;50547;49.498;0.092;2022-08-30T00:59:13;1015;;;18.31;69.07
64230;BME280;50547;49.498;0.092;2022-08-30T01:01:42;1015;;;18.37;68.72
64230;BME280;50547;49.498;0.092;2022-08-30T01:04:11;1015;;;18.24;69.30
64230;BME280;50547;49.498;0.092;2022-08-30T01:06:41;1015;;;18.18;69.57
64230;BME280;50547;49.498;0.092;2022-08-30T01:09:10;1015;;;18.15;69.53
64230;BME280;50547;49.498;0.092;2022-08-30T01:11:41;1015;;;18.17;69.32
64230;BME280;50547;49.498;0.092;2022-08-30T01:14:12;1015;;;18.14;69.32
64230;BME280;50547;49.498;0.092;2022-08-30T01:16:42;1015;;;18.10;69.53
64230;BME280;50547;49.498;0.092;2022-08-30T01:19:20;1015;;;18.15;68.96
64230;BME280;50547;49.498;0.092;2022-08-30T01:21:57;1015;;;18.07;69.54
64230;BME280;50547;49.498;0.092;2022-08-30T01:24:30;1015;;;18.07;69.28
64230;BME280;50547;49.498;0.092;2022-08-30T01:26:59;1015;;;18.06;69.45
64230;BME280;50547;49.498;0.092;2022-08-30T01:29:28;1015;;;18.04;69.47
64230;BME280;50547;49.498;0.092;2022-08-30T01:31:57;1015;;;17.99;69.63
64230;BME280;50547;49.498;0.092;2022-08-30T01:34:26;1015;;;17.88;70.10
64230;BME280;50547;49.498;0.092;2022-08-30T01:36:55;1015;;;17.83;70.29
64230;BME280;50547;49.498;0.092;2022-08-30T01:39:24;1015;;;17.94;69.53
64230;BME280;50547;49.498;0.092;2022-08-30T01:41:54;1015;;;17.90;69.58
64230;BME280;50547;49.498;0.092;2022-08-30T01:44:22;1015;;;17.82;70.04
64230;BME280;50547;49.498;0.092;2022-08-30T01:46:52;1015;;;17.77;70.40
64230;BME280;50547;49.498;0.092;2022-08-30T01:49:21;1015;;;17.67;70.76
64230;BME280;50547;49.498;0.092;2022-08-30T01:51:50;1015;;;17.64;70.74
64230;BME280;50547;49.498;0.092;2022-08-30T01:54:19;1015;;;17.63;70.70
64230;BME280;50547;49.498;0.092;2022-08-30T01:56:48;1015;;;17.60;70.78
64230;BME280;50547;49.498;0.092;2022-08-30T01:59:17;1015;;;17.50;71.25
64230;BME280;50547;49.498;0.092;2022-08-30T02:01:46;1015;;;17.51;71.05
64230;BME280;50547;49.498;0.092;2022-08-30T02:04:15;1014;;;17.45;71.28
64230;BME280;50547;49.498;0.092;2022-08-30T02:06:44;1015;;;17.48;71.16
64230;BME280;50547;49.498;0.092;2022-08-30T02:09:13;1014;;;17.49;71.02
64230;BME280;50547;49.498;0.092;2022-08-30T02:11:42;1015;;;17.43;71.35
64230;BME280;50547;49.498;0.092;2022-08-30T02:14:11;1015;;;17.42;71.37
64230;BME280;50547;49.498;0.092;2022-08-30T02:16:40;1015;;;17.40;71.48
64230;BME280;50547;49.498;0.092;2022-08-30T02:19:09;1014;;;17.41;71.43
64230;BME280;50547;49.498;0.092;2022-08-30T02:21:38;1014;;;17.38;71.53
64230;BME280;50547;49.498;0.092;2022-08-30T02:24:07;1014;;;17.37;71.60
64230;BME280;50547;49.498;0.092;2022-08-30T02:26:36;1014;;;17.39;71.44
64230;BME280;50547;49.498;0.092;2022-08-30T02:29:05;1014;;;17.44;71.22
64230;BME280;50547;49.498;0.092;2022-08-30T02:31:34;1014;;;17.40;71.47
64230;BME280;50547;49.498;0.092;2022-08-30T02:34:03;1014;;;17.43;71.31
64230;BME280;50547;49.498;0.092;2022-08-30T02:36:32;1014;;;17.35;71.80
64230;BME280;50547;49.498;0.092;2022-08-30T02:39:01;1014;;;17.38;71.72
64230;BME280;50547;49.498;0.092;2022-08-30T02:41:30;1014;;;17.39;71.50
64230;BME280;50547;49.498;0.092;2022-08-30T02:43:59;1014;;;17.40;71.66
64230;BME280;50547;49.498;0.092;2022-08-30T02:46:29;1014;;;17.35;71.93
64230;BME280;50547;49.498;0.092;2022-08-30T02:48:58;1014;;;17.36;71.83
64230;BME280;50547;49.498;0.092;2022-08-30T02:51:27;1014;;;17.35;71.86
64230;BME280;50547;49.498;0.092;2022-08-30T02:53:56;1014;;;17.25;72.54
64230;BME280;50547;49.498;0.092;2022-08-30T02:56:25;1014;;;17.26;72.37
64230;BME280;50547;49.498;0.092;2022-08-30T02:58:54;1014;;;17.27;72.42
64230;BME280;50547;49.498;0.092;2022-08-30T03:01:23;1014;;;17.26;72.41
64230;BME280;50547;49.498;0.092;2022-08-30T03:03:52;1014;;;17.30;72.24
64230;BME280;50547;49.498;0.092;2022-08-30T03:06:21;1014;;;17.24;72.64
64230;BME280;50547;49.498;0.092;2022-08-30T03:08:50;1014;;;17.18;73.09
64230;BME280;50547;49.498;0.092;2022-08-30T03:11:19;1014;;;17.20;72.91
64230;BME280;50547;49.498;0.092;2022-08-30T03:13:48;1014;;;17.18;73.00
64230;BME280;50547;49.498;0.092;2022-08-30T03:16:18;1014;;;17.19;72.94
64230;BME280;50547;49.498;0.092;2022-08-30T03:18:47;1014;;;17.16;73.30
64230;BME280;50547;49.498;0.092;2022-08-30T03:21:16;1014;;;17.13;73.26
64230;BME280;50547;49.498;0.092;2022-08-30T03:23:45;1014;;;17.16;73.11
64230;BME280;50547;49.498;0.092;2022-08-30T03:26:14;1014;;;17.17;73.04
64230;BME280;50547;49.498;0.092;2022-08-30T03:28:43;1014;;;17.20;72.88
64230;BME280;50547;49.498;0.092;2022-08-30T03:31:12;1014;;;17.19;72.97
64230;BME280;50547;49.498;0.092;2022-08-30T03:33:41;1014;;;17.15;73.19
64230;BME280;50547;49.498;0.092;2022-08-30T03:36:11;1014;;;17.18;73.11
64230;BME280;50547;49.498;0.092;2022-08-30T03:38:40;1014;;;17.24;72.78
64230;BME280;50547;49.498;0.092;2022-08-30T03:41:09;1014;;;17.16;73.33
64230;BME280;50547;49.498;0.092;2022-08-30T03:43:38;1014;;;17.28;72.61
64230;BME280;50547;49.498;0.092;2022-08-30T03:46:07;1014;;;17.34;72.30
64230;BME280;50547;49.498;0.092;2022-08-30T03:48:36;1014;;;17.30;72.74
64230;BME280;50547;49.498;0.092;2022-08-30T03:51:05;1014;;;17.29;72.78
64230;BME280;50547;49.498;0.092;2022-08-30T03:53:34;1014;;;17.28;72.95
64230;BME280;50547;49.498;0.092;2022-08-30T03:56:04;1014;;;17.30;72.83
64230;BME280;50547;49.498;0.092;2022-08-30T03:58:33;1014;;;17.28;72.92
64230;BME280;50547;49.498;0.092;2022-08-30T04:01:02;1014;;;17.29;72.88
64230;BME280;50547;49.498;0.092;2022-08-30T04:03:31;1014;;;17.31;72.90
64230;BME280;50547;49.498;0.092;2022-08-30T04:06:00;1014;;;17.33;72.83
64230;BME280;50547;49.498;0.092;2022-08-30T04:08:29;1014;;;17.28;73.26
64230;BME280;50547;49.498;0.092;2022-08-30T04:10:58;1014;;;17.31;73.13
64230;BME280;50547;49.498;0.092;2022-08-30T04:13:28;1014;;;17.31;73.22
64230;BME280;50547;49.498;0.092;2022-08-30T04:15:57;1014;;;17.36;73.01
64230;BME280;50547;49.498;0.092;2022-08-30T04:18:26;1014;;;17.38;73.13
64230;BME280;50547;49.498;0.092;2022-08-30T04:20:55;1014;;;17.38;73.35
64230;BME280;50547;49.498;0.092;2022-08-30T04:23:25;1014;;;17.39;73.45
64230;BME280;50547;49.498;0.092;2022-08-30T04:25:54;1014;;;17.41;73.47
64230;BME280;50547;49.498;0.092;2022-08-30T04:28:24;1014;;;17.42;73.53
64230;BME280;50547;49.498;0.092;2022-08-30T04:30:53;1014;;;17.45;73.51
64230;BME280;50547;49.498;0.092;2022-08-30T04:33:22;1014;;;17.47;73.64
64230;BME280;50547;49.498;0.092;2022-08-30T04:35:51;1014;;;17.47;73.75
64230;BME280;50547;49.498;0.092;2022-08-30T04:38:20;1014;;;17.50;73.71
64230;BME280;50547;49.498;0.092;2022-08-30T04:40:49;1014;;;17.53;73.67
64230;BME280;50547;49.498;0.092;2022-08-30T04:43:18;1014;;;17.55;73.85
64230;BME280;50547;49.498;0.092;2022-08-30T04:45:46;1014;;;17.62;73.61
64230;BME280;50547;49.498;0.092;2022-08-30T04:48:15;1014;;;17.66;73.53
64230;BME280;50547;49.498;0.092;2022-08-30T04:50:44;1014;;;17.75;73.22
64230;BME280;50547;49.498;0.092;2022-08-30T04:53:14;1014;;;17.82;73.21
64230;BME280;50547;49.498;0.092;2022-08-30T04:55:43;1014;;;17.88;73.27
64230;BME280;50547;49.498;0.092;2022-08-30T04:58:12;1014;;;17.96;72.91
64230;BME280;50547;49.498;0.092;2022-08-30T05:00:42;1014;;;18.00;72.97
64230;BME280;50547;49.498;0.092;2022-08-30T05:03:12;1014;;;18.10;72.52
64230;BME280;50547;49.498;0.092;2022-08-30T05:05:46;1014;;;18.04;73.14
64230;BME280;50547;49.498;0.092;2022-08-30T05:08:17;1014;;;18.06;73.21
64230;BME280;50547;49.498;0.092;2022-08-30T05:10:49;1014;;;18.11;73.09
64230;BME280;50547;49.498;0.092;2022-08-30T05:13:20;1014;;;18.21;72.73
64230;BME280;50547;49.498;0.092;2022-08-30T05:15:49;1014;;;18.17;73.27
64230;BME280;50547;49.498;0.092;2022-08-30T05:18:18;1014;;;18.17;73.47
64230;BME280;50547;49.498;0.092;2022-08-30T05:20:47;1014;;;18.22;73.30
64230;BME280;50547;49.498;0.092;2022-08-30T05:23:16;1014;;;18.25;73.31
64230;BME280;50547;49.498;0.092;2022-08-30T05:25:46;1014;;;18.17;73.87
64230;BME280;50547;49.498;0.092;2022-08-30T05:28:14;1014;;;18.21;73.81
64230;BME280;50547;49.498;0.092;2022-08-30T05:30:44;1015;;;18.13;74.12
64230;BME280;50547;49.498;0.092;2022-08-30T05:33:12;1015;;;18.13;74.13
64230;BME280;50547;49.498;0.092;2022-08-30T05:35:41;1014;;;18.21;73.85
64230;BME280;50547;49.498;0.092;2022-08-30T05:38:10;1014;;;18.20;73.89
64230;BME280;50547;49.498;0.092;2022-08-30T05:40:40;1015;;;18.20;73.93
64230;BME280;50547;49.498;0.092;2022-08-30T05:43:09;1015;;;18.26;73.69
64230;BME280;50547;49.498;0.092;2022-08-30T05:45:39;1015;;;18.39;73.03
64230;BME280;50547;49.498;0.092;2022-08-30T05:48:08;1015;;;18.42;72.90
64230;BME280;50547;49.498;0.092;2022-08-30T05:50:37;1015;;;18.62;72.35
64230;BME280;50547;49.498;0.092;2022-08-30T05:53:06;1015;;;18.94;71.24
64230;BME280;50547;49.498;0.092;2022-08-30T05:55:35;1015;;;18.73;72.41
64230;BME280;50547;49.498;0.092;2022-08-30T05:58:04;1015;;;18.72;72.59
64230;BME280;50547;49.498;0.092;2022-08-30T06:00:34;1015;;;18.79;72.57
64230;BME280;50547;49.498;0.092;2022-08-30T06:03:03;1015;;;18.84;72.13
64230;BME280;50547;49.498;0.092;2022-08-30T06:05:32;1015;;;18.96;72.23
64230;BME280;50547;49.498;0.092;2022-08-30T06:08:01;1015;;;19.21;70.75
64230;BME280;50547;49.498;0.092;2022-08-30T06:10:30;1015;;;19.38;70.40
64230;BME280;50547;49.498;0.092;2022-08-30T06:12:59;1015;;;19.63;69.54
64230;BME280;50547;49.498;0.092;2022-08-30T06:15:28;1015;;;19.53;70.05
64230;BME280;50547;49.498;0.092;2022-08-30T06:17:57;1015;;;19.58;70.14
64230;BME280;50547;49.498;0.092;2022-08-30T06:20:27;1015;;;19.63;70.08
64230;BME280;50547;49.498;0.092;2022-08-30T06:22:56;1015;;;19.69;70.13
64230;BME280;50547;49.498;0.092;2022-08-30T06:25:25;1015;;;19.76;69.99
64230;BME280;50547;49.498;0.092;2022-08-30T06:27:54;1015;;;19.68;70.48
64230;BME280;50547;49.498;0.092;2022-08-30T06:30:23;1015;;;19.72;70.46
64230;BME280;50547;49.498;0.092;2022-08-30T06:32:52;1015;;;19.77;70.29
64230;BME280;50547;49.498;0.092;2022-08-30T06:35:21;1015;;;19.83;70.01
64230;BME280;50547;49.498;0.092;2022-08-30T06:37:50;1015;;;19.70;70.44
64230;BME280;50547;49.498;0.092;2022-08-30T06:40:19;1015;;;19.89;69.30
64230;BME280;50547;49.498;0.092;2022-08-30T06:42:48;1015;;;19.95;69.11
64230;BME280;50547;49.498;0.092;2022-08-30T06:45:17;1015;;;20.03;68.87
64230;BME280;50547;49.498;0.092;2022-08-30T06:47:43;1015;;;20.04;69.07
64230;BME280;50547;49.498;0.092;2022-08-30T06:50:14;1015;;;20.13;68.77
64230;BME280;50547;49.498;0.092;2022-08-30T06:52:44;1015;;;20.24;68.45
64230;BME280;50547;49.498;0.092;2022-08-30T06:55:15;1015;;;20.25;68.25
64230;BME280;50547;49.498;0.092;2022-08-30T06:57:45;1015;;;20.27;68.37
64230;BME280;50547;49.498;0.092;2022-08-30T07:00:15;1015;;;20.39;67.84
64230;BME280;50547;49.498;0.092;2022-08-30T07:02:44;1015;;;20.59;67.07
64230;BME280;50547;49.498;0.092;2022-08-30T07:05:13;1015;;;20.81;66.30
64230;BME280;50547;49.498;0.092;2022-08-30T07:07:39;1015;;;20.91;65.74
64230;BME280;50547;49.498;0.092;2022-08-30T07:10:09;1015;;;20.80;66.67
64230;BME280;50547;49.498;0.092;2022-08-30T07:12:38;1015;;;20.67;67.09
64230;BME280;50547;49.498;0.092;2022-08-30T07:15:08;1015;;;20.31;68.96
64230;BME280;50547;49.498;0.092;2022-08-30T07:17:37;1015;;;20.40;68.28
64230;BME280;50547;49.498;0.092;2022-08-30T07:20:04;1015;;;20.49;67.90
64230;BME280;50547;49.498;0.092;2022-08-30T07:22:33;1015;;;20.62;66.68
64230;BME280;50547;49.498;0.092;2022-08-30T07:24:59;1015;;;20.62;66.98
64230;BME280;50547;49.498;0.092;2022-08-30T07:27:29;1015;;;20.52;67.63
64230;BME280;50547;49.498;0.092;2022-08-30T07:29:58;1015;;;20.63;67.10
64230;BME280;50547;49.498;0.092;2022-08-30T07:32:27;1015;;;20.83;66.06
64230;BME280;50547;49.498;0.092;2022-08-30T07:34:57;1015;;;20.86;65.74
64230;BME280;50547;49.498;0.092;2022-08-30T07:37:26;1015;;;20.95;64.88
64230;BME280;50547;49.498;0.092;2022-08-30T07:39:55;1015;;;21.02;65.25
64230;BME280;50547;49.498;0.092;2022-08-30T07:42:24;1015;;;21.05;64.39
64230;BME280;50547;49.498;0.092;2022-08-30T07:44:53;1015;;;21.28;63.31
64230;BME280;50547;49.498;0.092;2022-08-30T07:47:19;1015;;;21.38;63.24
64230;BME280;50547;49.498;0.092;2022-08-30T07:49:48;1015;;;21.45;62.47
64230;BME280;50547;49.498;0.092;2022-08-30T07:52:17;1015;;;21.75;61.09
64230;BME280;50547;49.498;0.092;2022-08-30T07:54:46;1015;;;21.90;60.46
64230;BME280;50547;49.498;0.092;2022-08-30T07:57:15;1015;;;21.94;60.36
64230;BME280;50547;49.498;0.092;2022-08-30T07:59:44;1015;;;22.34;59.41
64230;BME280;50547;49.498;0.092;2022-08-30T08:02:13;1015;;;22.49;59.10
64230;BME280;50547;49.498;0.092;2022-08-30T08:04:39;1015;;;22.69;58.18
64230;BME280;50547;49.498;0.092;2022-08-30T08:07:08;1015;;;22.72;58.17
64230;BME280;50547;49.498;0.092;2022-08-30T08:09:38;1015;;;23.07;57.29
64230;BME280;50547;49.498;0.092;2022-08-30T08:12:07;1015;;;23.06;57.40
64230;BME280;50547;49.498;0.092;2022-08-30T08:14:36;1015;;;23.43;55.24
64230;BME280;50547;49.498;0.092;2022-08-30T08:17:06;1015;;;22.98;57.54
64230;BME280;50547;49.498;0.092;2022-08-30T08:19:35;1015;;;22.93;57.89
64230;BME280;50547;49.498;0.092;2022-08-30T08:22:04;1015;;;23.37;56.24
64230;BME280;50547;49.498;0.092;2022-08-30T08:24:33;1015;;;23.58;55.20
64230;BME280;50547;49.498;0.092;2022-08-30T08:27:02;1016;;;23.51;55.57
64230;BME280;50547;49.498;0.092;2022-08-30T08:29:32;1016;;;23.37;56.53
64230;BME280;50547;49.498;0.092;2022-08-30T08:32:01;1016;;;23.95;54.09
64230;BME280;50547;49.498;0.092;2022-08-30T08:34:30;1016;;;24.41;52.18
64230;BME280;50547;49.498;0.092;2022-08-30T08:36:59;1016;;;24.78;51.21
64230;BME280;50547;49.498;0.092;2022-08-30T08:39:28;1016;;;24.71;51.65
64230;BME280;50547;49.498;0.092;2022-08-30T08:42:04;1016;;;24.63;52.38
64230;BME280;50547;49.498;0.092;2022-08-30T08:44:46;1016;;;24.98;50.83
64230;BME280;50547;49.498;0.092;2022-08-30T08:47:23;1016;;;24.96;51.14
64230;BME280;50547;49.498;0.092;2022-08-30T08:49:55;1016;;;24.87;51.64
64230;BME280;50547;49.498;0.092;2022-08-30T08:52:30;1016;;;24.55;52.83
64230;BME280;50547;49.498;0.092;2022-08-30T08:55:09;1016;;;24.86;51.37
64230;BME280;50547;49.498;0.092;2022-08-30T08:57:39;1016;;;25.50;48.90
64230;BME280;50547;49.498;0.092;2022-08-30T09:00:11;1016;;;25.89;48.02
64230;BME280;50547;49.498;0.092;2022-08-30T09:02:43;1016;;;25.33;50.78
64230;BME280;50547;49.498;0.092;2022-08-30T09:05:16;1016;;;25.72;49.72
64230;BME280;50547;49.498;0.092;2022-08-30T09:07:49;1016;;;25.55;50.15
64230;BME280;50547;49.498;0.092;2022-08-30T09:10:20;1016;;;25.99;49.14
64230;BME280;50547;49.498;0.092;2022-08-30T09:12:50;1016;;;25.63;53.17
64230;BME280;50547;49.498;0.092;2022-08-30T09:15:23;1016;;;25.90;49.80
64230;BME280;50547;49.498;0.092;2022-08-30T09:17:55;1016;;;26.33;52.79
64230;BME280;50547;49.498;0.092;2022-08-30T09:20:28;1016;;;26.41;53.34
64230;BME280;50547;49.498;0.092;2022-08-30T09:22:59;1016;;;25.70;57.60
64230;BME280;50547;49.498;0.092;2022-08-30T09:25:49;1016;;;26.20;54.94
64230;BME280;50547;49.498;0.092;2022-08-30T09:28:22;1016;;;26.66;52.87
64230;BME280;50547;49.498;0.092;2022-08-30T09:31:02;1015;;;26.76;53.38
64230;BME280;50547;49.498;0.092;2022-08-30T09:33:33;1016;;;25.38;59.05
64230;BME280;50547;49.498;0.092;2022-08-30T09:36:14;1016;;;23.85;67.72
64230;BME280;50547;49.498;0.092;2022-08-30T09:38:56;1016;;;24.67;60.83
64230;BME280;50547;49.498;0.092;2022-08-30T09:41:33;1016;;;24.60;61.27
64230;BME280;50547;49.498;0.092;2022-08-30T09:44:07;1016;;;24.16;63.88
64230;BME280;50547;49.498;0.092;2022-08-30T09:46:43;1015;;;23.89;63.35
64230;BME280;50547;49.498;0.092;2022-08-30T09:49:28;1016;;;24.61;59.82
64230;BME280;50547;49.498;0.092;2022-08-30T09:52:07;1016;;;25.36;55.45
64230;BME280;50547;49.498;0.092;2022-08-30T09:54:47;1015;;;25.70;55.61
64230;BME280;50547;49.498;0.092;2022-08-30T09:57:26;1016;;;26.03;54.47
64230;BME280;50547;49.498;0.092;2022-08-30T10:00:03;1016;;;26.40;53.45
64230;BME280;50547;49.498;0.092;2022-08-30T10:02:44;1016;;;25.78;57.30
64230;BME280;50547;49.498;0.092;2022-08-30T10:05:21;1016;;;26.03;56.22
64230;BME280;50547;49.498;0.092;2022-08-30T10:07:59;1015;;;26.87;51.81
64230;BME280;50547;49.498;0.092;2022-08-30T10:10:36;1015;;;26.93;51.83
64230;BME280;50547;49.498;0.092;2022-08-30T10:13:23;1015;;;26.64;50.73
64230;BME280;50547;49.498;0.092;2022-08-30T10:15:59;1015;;;26.26;49.09
64230;BME280;50547;49.498;0.092;2022-08-30T10:18:35;1015;;;26.65;46.30
64230;BME280;50547;49.498;0.092;2022-08-30T10:21:13;1015;;;26.30;47.76
64230;BME280;50547;49.498;0.092;2022-08-30T10:23:46;1015;;;25.65;51.11
64230;BME280;50547;49.498;0.092;2022-08-30T10:26:25;1015;;;25.87;49.63
64230;BME280;50547;49.498;0.092;2022-08-30T10:28:59;1015;;;25.33;51.13
64230;BME280;50547;49.498;0.092;2022-08-30T10:31:38;1015;;;25.88;49.74
64230;BME280;50547;49.498;0.092;2022-08-30T10:34:14;1015;;;26.80;45.56
64230;BME280;50547;49.498;0.092;2022-08-30T10:36:48;1015;;;27.02;45.22
64230;BME280;50547;49.498;0.092;2022-08-30T10:39:23;1015;;;27.30;44.20
64230;BME280;50547;49.498;0.092;2022-08-30T10:41:59;1015;;;27.45;45.27
64230;BME280;50547;49.498;0.092;2022-08-30T10:44:32;1015;;;27.46;45.74
64230;BME280;50547;49.498;0.092;2022-08-30T10:47:16;1015;;;27.24;46.66
64230;BME280;50547;49.498;0.092;2022-08-30T10:49:49;1015;;;27.59;44.98
64230;BME280;50547;49.498;0.092;2022-08-30T10:52:26;1015;;;27.34;45.74
64230;BME280;50547;49.498;0.092;2022-08-30T10:55:00;1015;;;26.13;48.66
64230;BME280;50547;49.498;0.092;2022-08-30T10:57:30;1015;;;26.10;48.12
64230;BME280;50547;49.498;0.092;2022-08-30T11:00:03;1015;;;26.43;45.91
64230;BME280;50547;49.498;0.092;2022-08-30T11:03:05;1015;;;27.09;44.14
64230;BME280;50547;49.498;0.092;2022-08-30T11:05:51;1015;;;26.37;46.19
64230;BME280;50547;49.498;0.092;2022-08-30T11:08:38;1015;;;27.15;43.25
64230;BME280;50547;49.498;0.092;2022-08-30T11:11:21;1015;;;26.53;44.94
64230;BME280;50547;49.498;0.092;2022-08-30T11:13:55;1015;;;27.09;43.34
64230;BME280;50547;49.498;0.092;2022-08-30T11:16:34;1015;;;26.97;44.19
64230;BME280;50547;49.498;0.092;2022-08-30T11:19:14;1015;;;27.51;42.96
64230;BME280;50547;49.498;0.092;2022-08-30T11:21:45;1015;;;26.88;46.21
64230;BME280;50547;49.498;0.092;2022-08-30T11:24:16;1015;;;27.31;44.41
64230;BME280;50547;49.498;0.092;2022-08-30T11:26:53;1015;;;26.96;45.59
64230;BME280;50547;49.498;0.092;2022-08-30T11:29:34;1015;;;27.03;46.10
64230;BME280;50547;49.498;0.092;2022-08-30T11:33:28;1015;;;27.46;44.60
64230;BME280;50547;49.498;0.092;2022-08-30T11:35:58;1015;;;27.10;45.50
64230;BME280;50547;49.498;0.092;2022-08-30T11:38:59;1015;;;26.64;46.16
64230;BME280;50547;49.498;0.092;2022-08-30T11:41:33;1015;;;26.30;47.98
64230;BME280;50547;49.498;0.092;2022-08-30T11:44:34;1015;;;26.28;47.86
64230;BME280;50547;49.498;0.092;2022-08-30T11:47:41;1015;;;26.27;48.07
64230;BME280;50547;49.498;0.092;2022-08-30T11:50:15;1015;;;26.57;46.31
64230;BME280;50547;49.498;0.092;2022-08-30T11:52:54;1015;;;26.74;46.27
64230;BME280;50547;49.498;0.092;2022-08-30T11:55:54;1015;;;26.76;45.92
64230;BME280;50547;49.498;0.092;2022-08-30T11:58:33;1015;;;26.76;46.09
64230;BME280;50547;49.498;0.092;2022-08-30T12:01:20;1015;;;26.42;47.91
64230;BME280;50547;49.498;0.092;2022-08-30T12:03:54;1015;;;26.34;47.83
64230;BME280;50547;49.498;0.092;2022-08-30T12:06:59;1015;;;26.44;47.15
64230;BME280;50547;49.498;0.092;2022-08-30T12:10:20;1015;;;26.18;48.24
64230;BME280;50547;49.498;0.092;2022-08-30T12:12:55;1016;;;25.66;48.81
64230;BME280;50547;49.498;0.092;2022-08-30T12:15:51;1015;;;25.76;46.48
64230;BME280;50547;49.498;0.092;2022-08-30T12:18:29;1015;;;25.57;47.73
64230;BME280;50547;49.498;0.092;2022-08-30T12:21:07;1015;;;25.75;45.36
64230;BME280;50547;49.498;0.092;2022-08-30T12:23:41;1015;;;25.49;46.78
64230;BME280;50547;49.498;0.092;2022-08-30T12:26:19;1015;;;25.39;47.41
64230;BME280;50547;49.498;0.092;2022-08-30T12:29:09;1015;;;25.74;46.05
64230;BME280;50547;49.498;0.092;2022-08-30T12:31:41;1016;;;25.48;46.81
64230;BME280;50547;49.498;0.092;2022-08-30T12:34:19;1015;;;25.76;45.30
64230;BME280;50547;49.498;0.092;2022-08-30T12:36:53;1015;;;26.11;45.24
64230;BME280;50547;49.498;0.092;2022-08-30T12:39:25;1015;;;25.74;47.68
64230;BME280;50547;49.498;0.092;2022-08-30T12:41:55;1016;;;25.69;47.38
64230;BME280;50547;49.498;0.092;2022-08-30T12:44:26;1016;;;25.84;46.64
64230;BME280;50547;49.498;0.092;2022-08-30T12:46:59;1016;;;26.15;46.36
64230;BME280;50547;49.498;0.092;2022-08-30T12:49:33;1015;;;26.02;47.31
64230;BME280;50547;49.498;0.092;2022-08-30T12:52:28;1016;;;26.29;44.77
64230;BME280;50547;49.498;0.092;2022-08-30T12:55:12;1016;;;25.55;49.50
64230;BME280;50547;49.498;0.092;2022-08-30T12:57:52;1015;;;25.99;46.27
64230;BME280;50547;49.498;0.092;2022-08-30T13:00:24;1016;;;25.54;50.06
64230;BME280;50547;49.498;0.092;2022-08-30T13:02:56;1015;;;25.57;48.79
64230;BME280;50547;49.498;0.092;2022-08-30T13:05:30;1015;;;25.34;49.72
64230;BME280;50547;49.498;0.092;2022-08-30T13:08:09;1016;;;26.05;46.58
64230;BME280;50547;49.498;0.092;2022-08-30T13:10:36;1015;;;26.02;48.56
64230;BME280;50547;49.498;0.092;2022-08-30T13:13:27;1015;;;25.51;49.05
64230;BME280;50547;49.498;0.092;2022-08-30T13:16:07;1016;;;25.68;49.01
64230;BME280;50547;49.498;0.092;2022-08-30T13:18:37;1016;;;25.59;50.22
64230;BME280;50547;49.498;0.092;2022-08-30T13:21:18;1016;;;25.26;51.03
64230;BME280;50547;49.498;0.092;2022-08-30T13:23:49;1016;;;25.63;49.52
64230;BME280;50547;49.498;0.092;2022-08-30T13:26:19;1016;;;26.04;47.91
64230;BME280;50547;49.498;0.092;2022-08-30T13:28:51;1016;;;25.94;49.82
64230;BME280;50547;49.498;0.092;2022-08-30T13:31:20;1016;;;26.42;47.94
64230;BME280;50547;49.498;0.092;2022-08-30T13:33:49;1016;;;26.24;50.33
64230;BME280;50547;49.498;0.092;2022-08-30T13:36:20;1016;;;26.36;50.79
64230;BME280;50547;49.498;0.092;2022-08-30T13:38:50;1016;;;26.13;49.96
64230;BME280;50547;49.498;0.092;2022-08-30T13:41:19;1016;;;25.61;51.90
64230;BME280;50547;49.498;0.092;2022-08-30T13:43:48;1016;;;25.93;49.93
64230;BME280;50547;49.498;0.092;2022-08-30T13:46:15;1016;;;25.64;52.18
64230;BME280;50547;49.498;0.092;2022-08-30T13:48:59;1016;;;25.83;51.35
64230;BME280;50547;49.498;0.092;2022-08-30T13:51:27;1016;;;25.94;50.09
64230;BME280;50547;49.498;0.092;2022-08-30T13:53:54;1016;;;25.02;55.41
64230;BME280;50547;49.498;0.092;2022-08-30T13:56:23;1015;;;24.81;55.20
64230;BME280;50547;49.498;0.092;2022-08-30T13:58:49;1015;;;25.25;51.18
64230;BME280;50547;49.498;0.092;2022-08-30T14:01:19;1016;;;25.37;50.07
64230;BME280;50547;49.498;0.092;2022-08-30T14:03:51;1015;;;25.38;52.49
64230;BME280;50547;49.498;0.092;2022-08-30T14:06:20;1015;;;25.36;52.59
64230;BME280;50547;49.498;0.092;2022-08-30T14:08:46;1015;;;25.39;50.86
64230;BME280;50547;49.498;0.092;2022-08-30T14:11:18;1015;;;26.07;49.20
64230;BME280;50547;49.498;0.092;2022-08-30T14:13:48;1015;;;26.45;48.15